createdAt,value
2022-09-14T00:00:11.357Z,996.77
2022-09-14T00:00:32.409Z,996.77
2022-09-14T00:01:14.443Z,996.79
2022-09-14T00:01:27.715Z,996.77
2022-09-14T00:01:47.619Z,996.77
2022-09-14T00:02:08.802Z,996.77
2022-09-14T00:02:29.955Z,996.77
2022-09-14T00:02:51.215Z,996.75
2022-09-14T00:03:12.419Z,996.79
2022-09-14T00:03:33.548Z,996.79
2022-09-14T00:03:54.604Z,996.79
2022-09-14T00:04:15.651Z,996.81
2022-09-14T00:04:36.706Z,996.75
2022-09-14T00:04:57.878Z,996.79
2022-09-14T00:05:18.930Z,996.79
2022-09-14T00:05:39.983Z,996.77
2022-09-14T00:06:01.050Z,996.77
2022-09-14T00:06:22.093Z,996.79
2022-09-14T00:06:43.142Z,996.79
2022-09-14T00:07:04.193Z,996.79
2022-09-14T00:07:25.247Z,996.81
2022-09-14T00:07:46.294Z,996.79
2022-09-14T00:08:07.345Z,996.81
2022-09-14T00:08:28.429Z,996.83
2022-09-14T00:08:49.534Z,996.83
2022-09-14T00:09:10.570Z,996.79
2022-09-14T00:09:31.623Z,996.77
2022-09-14T00:09:52.672Z,996.83
2022-09-14T00:10:13.857Z,996.81
2022-09-14T00:10:34.906Z,996.79
2022-09-14T00:10:55.976Z,996.81
2022-09-14T00:11:17.011Z,996.81
2022-09-14T00:11:38.057Z,996.81
2022-09-14T00:11:59.113Z,996.83
2022-09-14T00:12:20.159Z,996.85
2022-09-14T00:12:41.207Z,996.87
2022-09-14T00:13:02.263Z,996.87
2022-09-14T00:13:23.329Z,996.91
2022-09-14T00:13:44.372Z,996.91
2022-09-14T00:14:05.429Z,996.93
2022-09-14T00:14:26.487Z,996.97
2022-09-14T00:14:47.543Z,997.01
2022-09-14T00:15:08.589Z,997.03
2022-09-14T00:15:29.661Z,997.01
2022-09-14T00:15:50.715Z,997.07
2022-09-14T00:16:11.822Z,997.12
2022-09-14T00:16:32.969Z,997.14
2022-09-14T00:16:54.089Z,997.18
2022-09-14T00:17:15.134Z,997.18
2022-09-14T00:17:36.185Z,997.16
2022-09-14T00:17:57.244Z,997.16
2022-09-14T00:18:18.296Z,997.18
2022-09-14T00:18:39.345Z,997.24
2022-09-14T00:19:00.394Z,997.18
2022-09-14T00:19:21.445Z,997.16
2022-09-14T00:19:42.495Z,997.20
2022-09-14T00:20:03.554Z,997.12
2022-09-14T00:20:24.595Z,997.16
2022-09-14T00:20:45.675Z,997.09
2022-09-14T00:21:06.727Z,997.07
2022-09-14T00:21:27.794Z,997.03
2022-09-14T00:21:48.864Z,997.01
2022-09-14T00:22:09.926Z,996.97
2022-09-14T00:22:30.972Z,996.95
2022-09-14T00:22:52.029Z,996.91
2022-09-14T00:23:13.074Z,996.89
2022-09-14T00:23:34.145Z,996.89
2022-09-14T00:23:55.190Z,996.87
2022-09-14T00:24:16.243Z,996.81
2022-09-14T00:24:37.305Z,996.85
2022-09-14T00:24:58.345Z,996.81
2022-09-14T00:25:19.405Z,996.83
2022-09-14T00:25:40.462Z,996.81
2022-09-14T00:26:01.527Z,996.81
2022-09-14T00:26:22.575Z,996.77
2022-09-14T00:26:43.667Z,996.77
2022-09-14T00:27:04.725Z,996.73
2022-09-14T00:27:25.784Z,996.71
2022-09-14T00:27:46.825Z,996.69
2022-09-14T00:28:07.877Z,996.67
2022-09-14T00:28:28.934Z,996.65
2022-09-14T00:28:49.995Z,996.64
2022-09-14T00:29:11.042Z,996.64
2022-09-14T00:29:32.119Z,996.62
2022-09-14T00:29:53.192Z,996.60
2022-09-14T00:30:14.252Z,996.60
2022-09-14T00:30:35.303Z,996.60
2022-09-14T00:30:56.356Z,996.58
2022-09-14T00:31:17.618Z,996.62
2022-09-14T00:31:38.692Z,996.58
2022-09-14T00:31:59.793Z,996.62
2022-09-14T00:32:20.862Z,996.60
2022-09-14T00:32:41.932Z,996.62
2022-09-14T00:33:02.977Z,996.62
2022-09-14T00:33:24.026Z,996.64
2022-09-14T00:33:45.089Z,996.65
2022-09-14T00:34:06.162Z,996.67
2022-09-14T00:34:27.200Z,996.67
2022-09-14T00:34:48.265Z,996.69
2022-09-14T00:35:09.297Z,996.71
2022-09-14T00:35:30.483Z,996.73
2022-09-14T00:35:51.542Z,996.73
2022-09-14T00:36:12.599Z,996.75
2022-09-14T00:36:33.657Z,996.75
2022-09-14T00:36:54.711Z,996.75
2022-09-14T00:37:15.792Z,996.77
2022-09-14T00:37:36.820Z,996.77
2022-09-14T00:37:57.889Z,996.77
2022-09-14T00:38:18.931Z,996.77
2022-09-14T00:38:39.998Z,996.77
2022-09-14T00:39:01.097Z,996.75
2022-09-14T00:39:22.110Z,996.75
2022-09-14T00:39:43.248Z,996.73
2022-09-14T00:40:04.362Z,996.71
2022-09-14T00:40:25.461Z,996.71
2022-09-14T00:40:46.562Z,996.69
2022-09-14T00:41:07.626Z,996.69
2022-09-14T00:41:28.666Z,996.67
2022-09-14T00:41:49.738Z,996.67
2022-09-14T00:42:10.777Z,996.67
2022-09-14T00:42:31.828Z,996.65
2022-09-14T00:42:52.892Z,996.64
2022-09-14T00:43:13.936Z,996.65
2022-09-14T00:43:34.990Z,996.67
2022-09-14T00:43:56.038Z,996.65
2022-09-14T00:44:17.089Z,996.67
2022-09-14T00:44:38.151Z,996.67
2022-09-14T00:44:59.191Z,996.67
2022-09-14T00:45:20.251Z,996.67
2022-09-14T00:45:41.353Z,996.69
2022-09-14T00:46:02.540Z,996.69
2022-09-14T00:46:23.657Z,996.71
2022-09-14T00:46:44.739Z,996.75
2022-09-14T00:47:05.753Z,996.73
2022-09-14T00:47:26.803Z,996.73
2022-09-14T00:47:47.857Z,996.73
2022-09-14T00:48:08.916Z,996.71
2022-09-14T00:48:29.967Z,996.71
2022-09-14T00:48:51.029Z,996.69
2022-09-14T00:49:12.078Z,996.69
2022-09-14T00:49:33.127Z,996.67
2022-09-14T00:49:54.179Z,996.67
2022-09-14T00:50:15.226Z,996.65
2022-09-14T00:50:36.278Z,996.67
2022-09-14T00:50:57.354Z,996.65
2022-09-14T00:51:18.404Z,996.64
2022-09-14T00:51:39.459Z,996.64
2022-09-14T00:52:00.508Z,996.64
2022-09-14T00:52:21.559Z,996.60
2022-09-14T00:52:42.606Z,996.62
2022-09-14T00:53:03.691Z,996.64
2022-09-14T00:53:24.718Z,996.62
2022-09-14T00:53:45.788Z,996.62
2022-09-14T00:54:06.819Z,996.64
2022-09-14T00:54:27.874Z,996.62
2022-09-14T00:54:48.929Z,996.62
2022-09-14T00:55:09.993Z,996.62
2022-09-14T00:55:31.055Z,996.60
2022-09-14T00:55:52.095Z,996.60
2022-09-14T00:56:13.176Z,996.58
2022-09-14T00:56:34.331Z,996.56
2022-09-14T00:56:55.380Z,996.56
2022-09-14T00:57:16.439Z,996.56
2022-09-14T00:57:37.483Z,996.54
2022-09-14T00:57:58.538Z,996.52
2022-09-14T00:58:19.603Z,996.54
2022-09-14T00:58:40.646Z,996.50
2022-09-14T00:59:01.701Z,996.48
2022-09-14T00:59:22.751Z,996.48
2022-09-14T00:59:43.803Z,996.46
2022-09-14T01:00:04.853Z,996.44
2022-09-14T01:00:25.898Z,996.48
2022-09-14T01:00:47.003Z,996.46
2022-09-14T01:01:08.092Z,996.46
2022-09-14T01:01:29.177Z,996.46
2022-09-14T01:01:50.268Z,996.44
2022-09-14T01:02:11.399Z,996.46
2022-09-14T01:02:32.456Z,996.46
2022-09-14T01:02:53.489Z,996.46
2022-09-14T01:03:14.554Z,996.46
2022-09-14T01:03:35.623Z,996.44
2022-09-14T01:03:56.695Z,996.48
2022-09-14T01:04:17.752Z,996.48
2022-09-14T01:04:38.786Z,996.50
2022-09-14T01:04:59.841Z,996.48
2022-09-14T01:05:20.893Z,996.48
2022-09-14T01:05:41.953Z,996.50
2022-09-14T01:06:03.009Z,996.50
2022-09-14T01:06:24.075Z,996.50
2022-09-14T01:06:45.114Z,996.48
2022-09-14T01:07:06.285Z,996.48
2022-09-14T01:07:27.335Z,996.48
2022-09-14T01:07:48.420Z,996.50
2022-09-14T01:08:09.473Z,996.48
2022-09-14T01:08:30.570Z,996.48
2022-09-14T01:08:51.594Z,996.48
2022-09-14T01:09:12.625Z,996.48
2022-09-14T01:09:33.671Z,996.48
2022-09-14T01:09:54.738Z,996.48
2022-09-14T01:10:15.788Z,996.46
2022-09-14T01:10:36.856Z,996.46
2022-09-14T01:10:57.890Z,996.48
2022-09-14T01:11:18.951Z,996.46
2022-09-14T01:11:40.009Z,996.46
2022-09-14T01:12:01.062Z,996.46
2022-09-14T01:12:22.245Z,996.46
2022-09-14T01:12:43.318Z,996.48
2022-09-14T01:13:04.371Z,996.48
2022-09-14T01:13:25.422Z,996.48
2022-09-14T01:13:46.472Z,996.50
2022-09-14T01:14:07.535Z,996.48
2022-09-14T01:14:28.584Z,996.50
2022-09-14T01:14:49.670Z,996.50
2022-09-14T01:15:10.699Z,996.52
2022-09-14T01:15:31.751Z,996.52
2022-09-14T01:15:52.805Z,996.50
2022-09-14T01:16:13.907Z,996.54
2022-09-14T01:16:34.988Z,996.52
2022-09-14T01:16:56.149Z,996.52
2022-09-14T01:17:17.192Z,996.52
2022-09-14T01:17:59.362Z,996.54
2022-09-14T01:18:20.419Z,996.54
2022-09-14T01:18:41.464Z,996.54
2022-09-14T01:19:02.530Z,996.54
2022-09-14T01:19:23.584Z,996.58
2022-09-14T01:19:44.626Z,996.56
2022-09-14T01:20:05.676Z,996.58
2022-09-14T01:20:26.728Z,996.62
2022-09-14T01:20:47.782Z,996.62
2022-09-14T01:21:08.842Z,996.64
2022-09-14T01:21:29.914Z,996.62
2022-09-14T01:21:50.952Z,996.65
2022-09-14T01:22:12.026Z,996.65
2022-09-14T01:22:33.085Z,996.67
2022-09-14T01:22:54.134Z,996.69
2022-09-14T01:23:15.183Z,996.69
2022-09-14T01:23:36.253Z,996.67
2022-09-14T01:23:57.320Z,996.73
2022-09-14T01:24:18.348Z,996.71
2022-09-14T01:24:39.403Z,996.69
2022-09-14T01:25:00.454Z,996.71
2022-09-14T01:25:21.508Z,996.71
2022-09-14T01:25:42.556Z,996.69
2022-09-14T01:26:03.636Z,996.73
2022-09-14T01:26:24.678Z,996.73
2022-09-14T01:26:45.728Z,996.71
2022-09-14T01:27:06.768Z,996.73
2022-09-14T01:27:27.846Z,996.73
2022-09-14T01:27:48.896Z,996.71
2022-09-14T01:28:09.955Z,996.75
2022-09-14T01:28:31.024Z,996.73
2022-09-14T01:28:52.069Z,996.73
2022-09-14T01:29:13.136Z,996.73
2022-09-14T01:29:34.188Z,996.73
2022-09-14T01:29:55.240Z,996.71
2022-09-14T01:30:16.294Z,996.71
2022-09-14T01:30:37.362Z,996.71
2022-09-14T01:30:58.413Z,996.71
2022-09-14T01:31:19.519Z,996.69
2022-09-14T01:31:40.740Z,996.69
2022-09-14T01:32:01.820Z,996.69
2022-09-14T01:32:22.869Z,996.69
2022-09-14T01:32:44.061Z,996.67
2022-09-14T01:33:05.128Z,996.67
2022-09-14T01:33:26.166Z,996.67
2022-09-14T01:33:47.243Z,996.64
2022-09-14T01:34:08.284Z,996.64
2022-09-14T01:34:29.341Z,996.64
2022-09-14T01:34:50.389Z,996.64
2022-09-14T01:35:15.695Z,996.60
2022-09-14T01:35:37.013Z,996.60
2022-09-14T01:35:58.094Z,996.60
2022-09-14T01:36:19.115Z,996.62
2022-09-14T01:36:40.172Z,996.58
2022-09-14T01:37:01.222Z,996.56
2022-09-14T01:37:22.290Z,996.56
2022-09-14T01:37:43.343Z,996.56
2022-09-14T01:38:04.412Z,996.54
2022-09-14T01:38:25.458Z,996.52
2022-09-14T01:38:46.514Z,996.52
2022-09-14T01:39:07.579Z,996.50
2022-09-14T01:39:28.632Z,996.50
2022-09-14T01:39:49.707Z,996.48
2022-09-14T01:40:10.833Z,996.48
2022-09-14T01:40:31.945Z,996.46
2022-09-14T01:40:52.994Z,996.48
2022-09-14T01:41:14.057Z,996.44
2022-09-14T01:41:35.107Z,996.46
2022-09-14T01:41:56.203Z,996.46
2022-09-14T01:42:17.238Z,996.46
2022-09-14T01:42:38.312Z,996.44
2022-09-14T01:42:59.363Z,996.46
2022-09-14T01:43:20.519Z,996.46
2022-09-14T01:43:41.569Z,996.48
2022-09-14T01:44:02.645Z,996.44
2022-09-14T01:44:23.686Z,996.44
2022-09-14T01:44:44.735Z,996.44
2022-09-14T01:45:05.784Z,996.42
2022-09-14T01:45:26.945Z,996.42
2022-09-14T01:45:48.028Z,996.42
2022-09-14T01:46:09.162Z,996.40
2022-09-14T01:46:30.192Z,996.40
2022-09-14T01:46:51.248Z,996.38
2022-09-14T01:47:12.320Z,996.38
2022-09-14T01:47:33.372Z,996.38
2022-09-14T01:47:54.423Z,996.36
2022-09-14T01:48:15.480Z,996.38
2022-09-14T01:48:36.654Z,996.36
2022-09-14T01:48:57.711Z,996.36
2022-09-14T01:49:18.769Z,996.38
2022-09-14T01:49:39.832Z,996.38
2022-09-14T01:50:00.879Z,996.36
2022-09-14T01:50:21.951Z,996.34
2022-09-14T01:50:42.986Z,996.34
2022-09-14T01:51:04.044Z,996.32
2022-09-14T01:51:25.112Z,996.30
2022-09-14T01:51:46.171Z,996.28
2022-09-14T01:52:07.229Z,996.26
2022-09-14T01:52:28.294Z,996.24
2022-09-14T01:52:49.338Z,996.22
2022-09-14T01:53:10.518Z,996.22
2022-09-14T01:53:31.568Z,996.20
2022-09-14T01:53:52.623Z,996.20
2022-09-14T01:54:13.694Z,996.18
2022-09-14T01:54:34.778Z,996.18
2022-09-14T01:54:55.784Z,996.16
2022-09-14T01:55:16.837Z,996.16
2022-09-14T01:55:37.896Z,996.14
2022-09-14T01:55:58.950Z,996.14
2022-09-14T01:56:20.012Z,996.14
2022-09-14T01:56:41.062Z,996.14
2022-09-14T01:57:02.144Z,996.14
2022-09-14T01:57:23.179Z,996.14
2022-09-14T01:57:44.225Z,996.10
2022-09-14T01:58:05.286Z,996.12
2022-09-14T01:58:26.335Z,996.10
2022-09-14T01:58:47.390Z,996.10
2022-09-14T01:59:08.478Z,996.09
2022-09-14T01:59:29.520Z,996.09
2022-09-14T01:59:50.569Z,996.09
2022-09-14T02:00:11.626Z,996.09
2022-09-14T02:00:32.681Z,996.09
2022-09-14T02:00:53.792Z,996.07
2022-09-14T02:01:14.959Z,996.07
2022-09-14T02:01:36.194Z,996.07
2022-09-14T02:01:57.394Z,996.05
2022-09-14T02:02:18.620Z,996.03
2022-09-14T02:02:40.062Z,996.01
2022-09-14T02:03:01.302Z,996.03
2022-09-14T02:03:22.522Z,996.03
2022-09-14T02:03:43.755Z,996.01
2022-09-14T02:04:05.051Z,996.01
2022-09-14T02:04:26.114Z,996.01
2022-09-14T02:04:47.160Z,995.99
2022-09-14T02:05:08.222Z,995.99
2022-09-14T02:05:29.284Z,995.99
2022-09-14T02:05:50.363Z,995.99
2022-09-14T02:06:11.385Z,995.99
2022-09-14T02:06:32.434Z,995.99
2022-09-14T02:06:53.511Z,995.97
2022-09-14T02:07:14.565Z,995.99
2022-09-14T02:07:35.610Z,996.01
2022-09-14T02:07:56.676Z,995.97
2022-09-14T02:08:17.714Z,995.97
2022-09-14T02:08:38.888Z,995.97
2022-09-14T02:09:00.076Z,995.99
2022-09-14T02:09:21.154Z,995.95
2022-09-14T02:09:42.183Z,995.95
2022-09-14T02:10:03.261Z,995.95
2022-09-14T02:10:24.291Z,995.95
2022-09-14T02:10:45.348Z,995.93
2022-09-14T02:11:06.396Z,995.93
2022-09-14T02:11:27.456Z,995.95
2022-09-14T02:11:48.508Z,995.93
2022-09-14T02:12:09.601Z,995.91
2022-09-14T02:12:30.643Z,995.93
2022-09-14T02:12:51.685Z,995.91
2022-09-14T02:13:12.746Z,995.91
2022-09-14T02:13:33.825Z,995.89
2022-09-14T02:13:54.859Z,995.89
2022-09-14T02:14:15.922Z,995.89
2022-09-14T02:14:36.998Z,995.91
2022-09-14T02:14:58.038Z,995.89
2022-09-14T02:15:19.085Z,995.87
2022-09-14T02:15:40.140Z,995.87
2022-09-14T02:16:01.272Z,995.89
2022-09-14T02:16:22.456Z,995.87
2022-09-14T02:16:43.637Z,995.85
2022-09-14T02:17:04.683Z,995.85
2022-09-14T02:17:25.734Z,995.81
2022-09-14T02:17:46.780Z,995.85
2022-09-14T02:18:07.835Z,995.81
2022-09-14T02:18:28.894Z,995.81
2022-09-14T02:18:50.030Z,995.81
2022-09-14T02:19:11.063Z,995.81
2022-09-14T02:19:32.112Z,995.77
2022-09-14T02:19:53.163Z,995.77
2022-09-14T02:20:14.210Z,995.81
2022-09-14T02:20:35.273Z,995.79
2022-09-14T02:20:56.307Z,995.77
2022-09-14T02:21:17.363Z,995.77
2022-09-14T02:21:38.426Z,995.77
2022-09-14T02:21:59.461Z,995.77
2022-09-14T02:22:20.509Z,995.75
2022-09-14T02:22:41.564Z,995.75
2022-09-14T02:23:02.610Z,995.75
2022-09-14T02:23:23.666Z,995.75
2022-09-14T02:23:44.753Z,995.75
2022-09-14T02:24:05.800Z,995.75
2022-09-14T02:24:26.879Z,995.75
2022-09-14T02:24:47.915Z,995.77
2022-09-14T02:25:08.971Z,995.73
2022-09-14T02:25:30.014Z,995.75
2022-09-14T02:25:51.060Z,995.75
2022-09-14T02:26:12.107Z,995.75
2022-09-14T02:26:33.173Z,995.75
2022-09-14T02:26:54.214Z,995.73
2022-09-14T02:27:15.294Z,995.75
2022-09-14T02:27:36.330Z,995.73
2022-09-14T02:27:57.382Z,995.71
2022-09-14T02:28:18.439Z,995.71
2022-09-14T02:28:39.518Z,995.71
2022-09-14T02:29:00.682Z,995.71
2022-09-14T02:29:21.739Z,995.71
2022-09-14T02:29:42.811Z,995.73
2022-09-14T02:30:03.849Z,995.71
2022-09-14T02:30:24.908Z,995.69
2022-09-14T02:30:45.943Z,995.71
2022-09-14T02:31:07.042Z,995.69
2022-09-14T02:31:28.147Z,995.73
2022-09-14T02:31:49.282Z,995.71
2022-09-14T02:32:10.349Z,995.71
2022-09-14T02:32:31.382Z,995.71
2022-09-14T02:32:52.427Z,995.73
2022-09-14T02:33:13.484Z,995.73
2022-09-14T02:33:34.534Z,995.73
2022-09-14T02:33:55.601Z,995.75
2022-09-14T02:34:16.759Z,995.75
2022-09-14T02:34:37.768Z,995.75
2022-09-14T02:34:58.816Z,995.75
2022-09-14T02:35:19.872Z,995.77
2022-09-14T02:35:40.926Z,995.75
2022-09-14T02:36:01.985Z,995.75
2022-09-14T02:36:23.042Z,995.75
2022-09-14T02:36:44.086Z,995.77
2022-09-14T02:37:05.136Z,995.75
2022-09-14T02:37:26.182Z,995.75
2022-09-14T02:37:47.234Z,995.75
2022-09-14T02:38:08.290Z,995.71
2022-09-14T02:38:29.378Z,995.75
2022-09-14T02:38:50.392Z,995.73
2022-09-14T02:39:11.443Z,995.73
2022-09-14T02:39:32.525Z,995.71
2022-09-14T02:39:53.625Z,995.73
2022-09-14T02:40:14.731Z,995.73
2022-09-14T02:40:35.769Z,995.69
2022-09-14T02:40:56.815Z,995.69
2022-09-14T02:41:17.866Z,995.69
2022-09-14T02:41:38.928Z,995.73
2022-09-14T02:41:59.979Z,995.67
2022-09-14T02:42:21.024Z,995.69
2022-09-14T02:42:42.081Z,995.69
2022-09-14T02:43:03.138Z,995.69
2022-09-14T02:43:24.174Z,995.69
2022-09-14T02:43:45.230Z,995.67
2022-09-14T02:44:06.276Z,995.71
2022-09-14T02:44:27.324Z,995.67
2022-09-14T02:44:48.404Z,995.67
2022-09-14T02:45:09.447Z,995.69
2022-09-14T02:45:30.500Z,995.71
2022-09-14T02:45:51.554Z,995.71
2022-09-14T02:46:12.696Z,995.69
2022-09-14T02:46:33.837Z,995.67
2022-09-14T02:46:54.937Z,995.69
2022-09-14T02:47:15.959Z,995.69
2022-09-14T02:47:37.021Z,995.67
2022-09-14T02:47:58.097Z,995.69
2022-09-14T02:48:19.192Z,995.65
2022-09-14T02:48:40.237Z,995.65
2022-09-14T02:49:01.301Z,995.65
2022-09-14T02:49:22.348Z,995.63
2022-09-14T02:49:43.396Z,995.63
2022-09-14T02:50:04.603Z,995.65
2022-09-14T02:50:25.607Z,995.65
2022-09-14T02:50:46.658Z,995.63
2022-09-14T02:51:07.721Z,995.60
2022-09-14T02:51:28.774Z,995.58
2022-09-14T02:51:49.838Z,995.62
2022-09-14T02:52:10.881Z,995.60
2022-09-14T02:52:31.945Z,995.62
2022-09-14T02:52:52.993Z,995.58
2022-09-14T02:53:14.047Z,995.58
2022-09-14T02:53:35.102Z,995.58
2022-09-14T02:53:56.158Z,995.62
2022-09-14T02:54:17.210Z,995.62
2022-09-14T02:54:38.295Z,995.63
2022-09-14T02:54:59.457Z,995.60
2022-09-14T02:55:20.504Z,995.65
2022-09-14T02:55:41.570Z,995.62
2022-09-14T02:56:02.625Z,995.63
2022-09-14T02:56:23.674Z,995.62
2022-09-14T02:56:44.722Z,995.63
2022-09-14T02:57:05.777Z,995.63
2022-09-14T02:57:26.824Z,995.67
2022-09-14T02:57:47.890Z,995.65
2022-09-14T02:58:08.937Z,995.65
2022-09-14T02:58:29.992Z,995.65
2022-09-14T02:58:51.047Z,995.65
2022-09-14T02:59:12.096Z,995.65
2022-09-14T02:59:33.154Z,995.67
2022-09-14T02:59:54.277Z,995.65
2022-09-14T03:00:15.298Z,995.67
2022-09-14T03:00:36.377Z,995.67
2022-09-14T03:00:57.439Z,995.67
2022-09-14T03:01:18.502Z,995.67
2022-09-14T03:01:39.594Z,995.69
2022-09-14T03:02:00.688Z,995.69
2022-09-14T03:02:21.857Z,995.69
2022-09-14T03:02:42.887Z,995.71
2022-09-14T03:03:03.932Z,995.69
2022-09-14T03:03:24.984Z,995.69
2022-09-14T03:03:46.034Z,995.67
2022-09-14T03:04:07.095Z,995.67
2022-09-14T03:04:28.191Z,995.67
2022-09-14T03:04:49.216Z,995.67
2022-09-14T03:05:10.282Z,995.65
2022-09-14T03:05:31.340Z,995.65
2022-09-14T03:05:52.387Z,995.65
2022-09-14T03:06:13.441Z,995.65
2022-09-14T03:06:34.513Z,995.67
2022-09-14T03:06:55.586Z,995.65
2022-09-14T03:07:16.624Z,995.67
2022-09-14T03:07:37.669Z,995.65
2022-09-14T03:07:58.723Z,995.65
2022-09-14T03:08:19.774Z,995.67
2022-09-14T03:08:40.819Z,995.69
2022-09-14T03:09:01.909Z,995.65
2022-09-14T03:09:22.948Z,995.69
2022-09-14T03:09:43.999Z,995.69
2022-09-14T03:10:05.803Z,995.69
2022-09-14T03:10:26.871Z,995.69
2022-09-14T03:10:47.922Z,995.71
2022-09-14T03:11:08.972Z,995.69
2022-09-14T03:11:30.058Z,995.69
2022-09-14T03:11:51.089Z,995.69
2022-09-14T03:12:12.136Z,995.69
2022-09-14T03:12:33.202Z,995.69
2022-09-14T03:12:54.256Z,995.69
2022-09-14T03:13:15.309Z,995.69
2022-09-14T03:13:36.370Z,995.69
2022-09-14T03:13:57.416Z,995.69
2022-09-14T03:14:18.462Z,995.71
2022-09-14T03:14:39.511Z,995.71
2022-09-14T03:15:00.558Z,995.69
2022-09-14T03:15:21.612Z,995.71
2022-09-14T03:15:42.830Z,995.69
2022-09-14T03:16:03.906Z,995.67
2022-09-14T03:16:24.982Z,995.69
2022-09-14T03:16:46.028Z,995.69
2022-09-14T03:17:07.087Z,995.67
2022-09-14T03:17:28.131Z,995.67
2022-09-14T03:17:49.193Z,995.67
2022-09-14T03:18:14.273Z,995.67
2022-09-14T03:18:35.662Z,995.69
2022-09-14T03:18:56.711Z,995.67
2022-09-14T03:19:17.754Z,995.67
2022-09-14T03:19:38.810Z,995.67
2022-09-14T03:19:59.880Z,995.67
2022-09-14T03:20:20.918Z,995.67
2022-09-14T03:20:42.086Z,995.67
2022-09-14T03:21:03.366Z,995.67
2022-09-14T03:21:24.417Z,995.67
2022-09-14T03:21:45.462Z,995.67
2022-09-14T03:22:06.519Z,995.67
2022-09-14T03:22:27.595Z,995.67
2022-09-14T03:22:48.635Z,995.69
2022-09-14T03:23:09.684Z,995.65
2022-09-14T03:23:30.736Z,995.65
2022-09-14T03:23:51.785Z,995.67
2022-09-14T03:24:12.837Z,995.63
2022-09-14T03:24:33.911Z,995.65
2022-09-14T03:24:55.040Z,995.63
2022-09-14T03:25:16.047Z,995.65
2022-09-14T03:25:37.121Z,995.65
2022-09-14T03:25:58.166Z,995.63
2022-09-14T03:26:19.232Z,995.60
2022-09-14T03:26:40.284Z,995.62
2022-09-14T03:27:01.326Z,995.62
2022-09-14T03:27:22.380Z,995.60
2022-09-14T03:27:43.431Z,995.58
2022-09-14T03:28:04.482Z,995.58
2022-09-14T03:28:25.529Z,995.54
2022-09-14T03:28:46.584Z,995.54
2022-09-14T03:29:07.655Z,995.54
2022-09-14T03:29:28.688Z,995.54
2022-09-14T03:29:49.740Z,995.52
2022-09-14T03:30:10.792Z,995.56
2022-09-14T03:30:31.846Z,995.56
2022-09-14T03:30:52.930Z,995.54
2022-09-14T03:31:14.084Z,995.56
2022-09-14T03:31:35.123Z,995.56
2022-09-14T03:31:56.157Z,995.56
2022-09-14T03:32:17.210Z,995.58
2022-09-14T03:32:38.260Z,995.58
2022-09-14T03:32:59.316Z,995.58
2022-09-14T03:33:20.394Z,995.60
2022-09-14T03:33:41.435Z,995.60
2022-09-14T03:34:02.482Z,995.60
2022-09-14T03:34:23.538Z,995.62
2022-09-14T03:34:44.583Z,995.62
2022-09-14T03:35:05.636Z,995.62
2022-09-14T03:35:26.706Z,995.62
2022-09-14T03:35:47.735Z,995.62
2022-09-14T03:36:08.794Z,995.62
2022-09-14T03:36:29.963Z,995.60
2022-09-14T03:36:51.025Z,995.62
2022-09-14T03:37:12.079Z,995.62
2022-09-14T03:37:33.165Z,995.60
2022-09-14T03:37:54.192Z,995.60
2022-09-14T03:38:15.238Z,995.60
2022-09-14T03:38:36.288Z,995.60
2022-09-14T03:38:57.350Z,995.58
2022-09-14T03:39:18.410Z,995.58
2022-09-14T03:39:39.485Z,995.58
2022-09-14T03:40:00.579Z,995.60
2022-09-14T03:40:22.217Z,995.58
2022-09-14T03:40:43.343Z,995.58
2022-09-14T03:41:04.399Z,995.58
2022-09-14T03:41:25.454Z,995.58
2022-09-14T03:41:46.524Z,995.58
2022-09-14T03:42:07.601Z,995.60
2022-09-14T03:42:28.638Z,995.60
2022-09-14T03:42:49.737Z,995.60
2022-09-14T03:43:10.758Z,995.58
2022-09-14T03:43:31.809Z,995.58
2022-09-14T03:43:52.894Z,995.58
2022-09-14T03:44:13.928Z,995.56
2022-09-14T03:44:34.977Z,995.58
2022-09-14T03:44:56.022Z,995.58
2022-09-14T03:45:17.076Z,995.56
2022-09-14T03:45:38.195Z,995.56
2022-09-14T03:45:59.220Z,995.56
2022-09-14T03:46:20.323Z,995.56
2022-09-14T03:46:41.456Z,995.56
2022-09-14T03:47:02.570Z,995.56
2022-09-14T03:47:23.626Z,995.54
2022-09-14T03:47:44.702Z,995.52
2022-09-14T03:48:05.736Z,995.48
2022-09-14T03:48:26.789Z,995.52
2022-09-14T03:48:47.838Z,995.48
2022-09-14T03:49:08.892Z,995.44
2022-09-14T03:49:29.942Z,995.52
2022-09-14T03:49:51.023Z,995.46
2022-09-14T03:50:12.058Z,995.46
2022-09-14T03:50:33.114Z,995.48
2022-09-14T03:50:54.154Z,995.46
2022-09-14T03:51:15.208Z,995.46
2022-09-14T03:51:36.258Z,995.48
2022-09-14T03:51:59.838Z,995.48
2022-09-14T03:52:20.983Z,995.46
2022-09-14T03:52:42.035Z,995.46
2022-09-14T03:53:03.086Z,995.48
2022-09-14T03:53:24.138Z,995.48
2022-09-14T03:53:45.244Z,995.48
2022-09-14T03:54:06.269Z,995.48
2022-09-14T03:54:27.344Z,995.44
2022-09-14T03:54:48.492Z,995.48
2022-09-14T03:55:09.563Z,995.48
2022-09-14T03:55:30.591Z,995.46
2022-09-14T03:55:51.642Z,995.46
2022-09-14T03:56:12.725Z,995.46
2022-09-14T03:56:33.790Z,995.48
2022-09-14T03:56:54.868Z,995.46
2022-09-14T03:57:15.906Z,995.46
2022-09-14T03:57:36.953Z,995.44
2022-09-14T03:57:58.011Z,995.46
2022-09-14T03:58:19.064Z,995.48
2022-09-14T03:58:40.129Z,995.42
2022-09-14T03:59:01.197Z,995.42
2022-09-14T03:59:22.224Z,995.42
2022-09-14T03:59:43.929Z,995.40
2022-09-14T04:00:04.970Z,995.42
2022-09-14T04:00:26.028Z,995.42
2022-09-14T04:00:47.067Z,995.42
2022-09-14T04:01:08.258Z,995.40
2022-09-14T04:01:29.377Z,995.40
2022-09-14T04:01:50.464Z,995.40
2022-09-14T04:02:11.686Z,995.40
2022-09-14T04:02:32.798Z,995.38
2022-09-14T04:02:53.875Z,995.38
2022-09-14T04:03:14.983Z,995.40
2022-09-14T04:03:36.022Z,995.38
2022-09-14T04:03:57.055Z,995.38
2022-09-14T04:04:18.121Z,995.38
2022-09-14T04:04:39.156Z,995.38
2022-09-14T04:05:00.215Z,995.38
2022-09-14T04:05:22.045Z,995.38
2022-09-14T04:05:43.202Z,995.40
2022-09-14T04:06:04.230Z,995.40
2022-09-14T04:06:25.409Z,995.36
2022-09-14T04:06:46.457Z,995.40
2022-09-14T04:07:07.515Z,995.38
2022-09-14T04:07:28.574Z,995.40
2022-09-14T04:07:49.644Z,995.36
2022-09-14T04:08:10.683Z,995.38
2022-09-14T04:08:31.737Z,995.36
2022-09-14T04:08:52.786Z,995.38
2022-09-14T04:09:13.840Z,995.40
2022-09-14T04:09:34.899Z,995.38
2022-09-14T04:09:55.988Z,995.38
2022-09-14T04:10:17.027Z,995.36
2022-09-14T04:10:38.061Z,995.36
2022-09-14T04:10:59.124Z,995.32
2022-09-14T04:11:20.202Z,995.34
2022-09-14T04:11:41.282Z,995.36
2022-09-14T04:12:02.319Z,995.36
2022-09-14T04:12:23.358Z,995.36
2022-09-14T04:12:44.413Z,995.34
2022-09-14T04:13:05.461Z,995.34
2022-09-14T04:13:26.518Z,995.36
2022-09-14T04:13:47.564Z,995.34
2022-09-14T04:14:08.627Z,995.32
2022-09-14T04:14:29.683Z,995.32
2022-09-14T04:14:50.729Z,995.32
2022-09-14T04:15:11.778Z,995.34
2022-09-14T04:15:32.837Z,995.30
2022-09-14T04:15:53.927Z,995.30
2022-09-14T04:16:15.027Z,995.34
2022-09-14T04:16:36.246Z,995.28
2022-09-14T04:16:57.253Z,995.28
2022-09-14T04:17:18.302Z,995.30
2022-09-14T04:17:39.354Z,995.26
2022-09-14T04:18:00.405Z,995.26
2022-09-14T04:18:21.454Z,995.26
2022-09-14T04:18:42.577Z,995.24
2022-09-14T04:19:03.586Z,995.26
2022-09-14T04:19:24.640Z,995.26
2022-09-14T04:19:45.691Z,995.24
2022-09-14T04:20:06.745Z,995.24
2022-09-14T04:20:27.800Z,995.24
2022-09-14T04:20:48.851Z,995.22
2022-09-14T04:21:09.925Z,995.24
2022-09-14T04:21:30.964Z,995.22
2022-09-14T04:21:52.137Z,995.22
2022-09-14T04:22:13.188Z,995.24
2022-09-14T04:22:34.244Z,995.22
2022-09-14T04:22:55.306Z,995.24
2022-09-14T04:23:16.389Z,995.22
2022-09-14T04:23:56.648Z,995.22